createdAt,value
2018-02-12T00:00:47.123Z,90.82
2018-02-12T00:01:47.040Z,90.91
2018-02-12T00:02:47.038Z,91.10
2018-02-12T00:03:47.009Z,91.10
2018-02-12T00:04:46.951Z,91.10
2018-02-12T00:05:46.932Z,90.82
2018-02-12T00:06:46.942Z,90.91
2018-02-12T00:07:46.910Z,90.82
2018-02-12T00:08:46.841Z,90.44
2018-02-12T00:09:46.859Z,91.10
2018-02-12T00:10:46.783Z,90.72
2018-02-12T00:11:47.183Z,90.91
2018-02-12T00:12:46.729Z,91.10
2018-02-12T00:13:46.914Z,90.91
2018-02-12T00:14:46.669Z,90.82
2018-02-12T00:15:46.656Z,91.10
2018-02-12T00:16:46.631Z,90.91
2018-02-12T00:17:46.603Z,90.91
2018-02-12T00:18:46.774Z,90.72
2018-02-12T00:19:46.546Z,91.10
2018-02-12T00:20:47.179Z,91.48
2018-02-12T00:21:46.497Z,91.01
2018-02-12T00:22:46.482Z,91.58
2018-02-12T00:23:46.611Z,91.58
2018-02-12T00:24:46.871Z,91.58
2018-02-12T00:25:46.631Z,91.20
2018-02-12T00:26:46.341Z,90.91
2018-02-12T00:27:46.292Z,90.63
2018-02-12T00:28:46.281Z,90.72
2018-02-12T00:29:46.277Z,90.72
2018-02-12T00:30:46.456Z,91.10
2018-02-12T00:31:46.326Z,90.82
2018-02-12T00:32:46.577Z,91.01
2018-02-12T00:33:46.148Z,91.10
2018-02-12T00:34:46.132Z,91.10
2018-02-12T00:35:46.104Z,91.10
2018-02-12T00:36:46.504Z,91.01
2018-02-12T00:37:46.978Z,90.91
2018-02-12T00:38:46.667Z,90.82
2018-02-12T00:39:46.132Z,91.10
2018-02-12T00:40:45.978Z,90.91
2018-02-12T00:41:45.935Z,90.91
2018-02-12T00:42:45.880Z,91.29
2018-02-12T00:43:46.137Z,90.72
2018-02-12T00:44:45.835Z,91.01
2018-02-12T00:45:45.785Z,90.91
2018-02-12T00:46:45.788Z,90.91
2018-02-12T00:47:46.032Z,91.48
2018-02-12T00:48:45.719Z,91.67
2018-02-12T00:49:45.806Z,91.48
2018-02-12T00:50:45.707Z,91.39
2018-02-12T00:51:45.957Z,91.20
2018-02-12T00:52:45.766Z,90.82
2018-02-12T00:53:45.565Z,90.91
2018-02-12T00:54:45.590Z,90.82
2018-02-12T00:55:45.643Z,91.01
2018-02-12T00:56:45.638Z,90.72
2018-02-12T00:57:45.507Z,90.72
2018-02-12T00:58:45.403Z,90.82
2018-02-12T00:59:45.373Z,91.10
2018-02-12T01:00:45.406Z,90.91
2018-02-12T01:01:45.536Z,91.10
2018-02-12T01:02:45.402Z,90.82
2018-02-12T01:03:45.400Z,91.01
2018-02-12T01:04:45.269Z,91.10
2018-02-12T01:05:45.536Z,91.01
2018-02-12T01:06:45.204Z,91.01
2018-02-12T01:07:45.163Z,91.29
2018-02-12T01:08:45.153Z,91.10
2018-02-12T01:09:45.239Z,91.29
2018-02-12T01:10:45.071Z,90.72
2018-02-12T01:11:45.072Z,90.82
2018-02-12T01:12:45.055Z,91.29
2018-02-12T01:13:45.014Z,91.39
2018-02-12T01:14:44.950Z,91.01
2018-02-12T01:15:44.963Z,91.01
2018-02-12T01:16:44.898Z,91.20
2018-02-12T01:17:44.886Z,91.20
2018-02-12T01:18:44.855Z,91.10
2018-02-12T01:19:44.811Z,91.29
2018-02-12T01:20:44.787Z,91.01
2018-02-12T01:21:44.758Z,91.10
2018-02-12T01:22:44.740Z,91.10
2018-02-12T01:23:44.760Z,91.01
2018-02-12T01:24:44.664Z,91.01
2018-02-12T01:25:44.638Z,90.91
2018-02-12T01:26:44.638Z,91.10
2018-02-12T01:27:44.624Z,90.91
2018-02-12T01:28:44.551Z,90.72
2018-02-12T01:29:44.544Z,90.63
2018-02-12T01:30:44.493Z,91.01
2018-02-12T01:31:44.681Z,90.72
2018-02-12T01:32:44.455Z,90.91
2018-02-12T01:33:44.420Z,90.53
2018-02-12T01:34:44.400Z,90.25
2018-02-12T01:35:44.409Z,90.25
2018-02-12T01:36:44.376Z,90.34
2018-02-12T01:37:44.316Z,90.34
2018-02-12T01:38:44.314Z,90.06
2018-02-12T01:39:44.241Z,90.16
2018-02-12T01:40:44.222Z,91.01
2018-02-12T01:41:44.199Z,90.91
2018-02-12T01:42:44.175Z,90.44
2018-02-12T01:43:44.130Z,90.82
2018-02-12T01:44:44.143Z,90.53
2018-02-12T01:45:44.083Z,90.72
2018-02-12T01:46:44.077Z,90.91
2018-02-12T01:47:44.072Z,91.01
2018-02-12T01:48:44.045Z,91.01
2018-02-12T01:49:43.976Z,91.39
2018-02-12T01:50:43.979Z,91.20
2018-02-12T01:51:44.122Z,91.48
2018-02-12T01:52:43.885Z,91.67
2018-02-12T01:53:43.956Z,91.48
2018-02-12T01:54:43.829Z,90.91
2018-02-12T01:55:43.796Z,91.48
2018-02-12T01:56:43.770Z,91.48
2018-02-12T01:57:43.751Z,91.39
2018-02-12T01:58:43.763Z,91.58
2018-02-12T01:59:43.686Z,91.48
2018-02-12T02:00:43.675Z,91.20
2018-02-12T02:01:43.637Z,91.48
2018-02-12T02:02:43.891Z,91.48
2018-02-12T02:03:43.580Z,91.58
2018-02-12T02:04:43.553Z,91.10
2018-02-12T02:05:43.545Z,91.77
2018-02-12T02:06:43.487Z,91.29
2018-02-12T02:07:43.481Z,91.20
2018-02-12T02:08:43.452Z,91.67
2018-02-12T02:09:43.435Z,91.48
2018-02-12T02:10:43.383Z,91.20
2018-02-12T02:11:43.360Z,91.67
2018-02-12T02:12:43.322Z,91.39
2018-02-12T02:13:43.303Z,91.20
2018-02-12T02:14:43.259Z,91.48
2018-02-12T02:15:43.255Z,91.48
2018-02-12T02:16:43.226Z,91.77
2018-02-12T02:17:43.194Z,91.96
2018-02-12T02:18:43.168Z,91.86
2018-02-12T02:19:43.172Z,91.67
2018-02-12T02:20:43.115Z,91.77
2018-02-12T02:21:43.062Z,91.77
2018-02-12T02:22:43.039Z,91.96
2018-02-12T02:23:43.263Z,92.14
2018-02-12T02:24:42.973Z,91.77
2018-02-12T02:25:42.971Z,91.77
2018-02-12T02:26:42.956Z,91.58
2018-02-12T02:27:42.941Z,91.77
2018-02-12T02:28:42.881Z,91.48
2018-02-12T02:29:42.887Z,91.77
2018-02-12T02:30:42.860Z,92.14
2018-02-12T02:31:42.988Z,92.05
2018-02-12T02:32:42.752Z,91.96
2018-02-12T02:33:42.741Z,91.67
2018-02-12T02:34:42.708Z,91.96
2018-02-12T02:35:42.745Z,91.86
2018-02-12T02:36:42.655Z,91.86
2018-02-12T02:37:42.630Z,91.96
2018-02-12T02:38:42.590Z,91.67
2018-02-12T02:39:42.577Z,91.86
2018-02-12T02:40:42.538Z,91.39
2018-02-12T02:41:42.518Z,92.14
2018-02-12T02:42:42.471Z,91.86
2018-02-12T02:43:42.447Z,92.05
2018-02-12T02:44:42.426Z,91.86
2018-02-12T02:45:42.399Z,91.86
2018-02-12T02:46:42.405Z,92.33
2018-02-12T02:47:42.363Z,91.96
2018-02-12T02:48:42.301Z,92.05
2018-02-12T02:49:42.274Z,92.14
2018-02-12T02:50:42.266Z,92.43
2018-02-12T02:51:42.222Z,92.43
2018-02-12T02:52:42.214Z,92.33
2018-02-12T02:53:42.427Z,92.24
2018-02-12T02:54:42.163Z,92.14
2018-02-12T02:55:42.162Z,92.14
2018-02-12T02:56:42.093Z,92.24
2018-02-12T02:57:42.065Z,92.99
2018-02-12T02:58:42.037Z,93.09
2018-02-12T02:59:42.023Z,92.90
2018-02-12T03:00:41.986Z,92.90
2018-02-12T03:01:41.970Z,93.37
2018-02-12T03:02:41.911Z,93.18
2018-02-12T03:03:41.887Z,93.18
2018-02-12T03:04:41.873Z,92.80
2018-02-12T03:05:41.820Z,93.47
2018-02-12T03:06:41.809Z,93.47
2018-02-12T03:07:41.787Z,93.56
2018-02-12T03:08:41.797Z,93.28
2018-02-12T03:09:41.723Z,93.18
2018-02-12T03:10:41.682Z,93.28
2018-02-12T03:11:41.695Z,93.37
2018-02-12T03:12:41.630Z,93.09
2018-02-12T03:13:41.621Z,92.99
2018-02-12T03:14:41.588Z,93.09
2018-02-12T03:15:41.683Z,93.28
2018-02-12T03:16:41.573Z,93.18
2018-02-12T03:17:41.489Z,93.47
2018-02-12T03:18:41.449Z,93.75
2018-02-12T03:19:41.462Z,93.56
2018-02-12T03:20:41.416Z,93.66
2018-02-12T03:21:41.373Z,93.94
2018-02-12T03:22:41.356Z,93.37
2018-02-12T03:23:41.329Z,93.47
2018-02-12T03:24:41.328Z,93.18
2018-02-12T03:25:41.259Z,93.56
2018-02-12T03:26:41.233Z,92.99
2018-02-12T03:27:41.267Z,93.37
2018-02-12T03:28:41.197Z,93.28
2018-02-12T03:29:41.153Z,92.90
2018-02-12T03:30:41.124Z,92.90
2018-02-12T03:31:41.110Z,93.18
2018-02-12T03:32:41.057Z,93.56
2018-02-12T03:33:41.037Z,93.18
2018-02-12T03:34:41.016Z,93.37
2018-02-12T03:35:41.005Z,93.09
2018-02-12T03:36:40.981Z,93.18
2018-02-12T03:37:40.939Z,92.90
2018-02-12T03:38:40.916Z,92.90
2018-02-12T03:39:40.871Z,92.61
2018-02-12T03:40:40.834Z,92.90
2018-02-12T03:41:40.804Z,92.80
2018-02-12T03:42:40.827Z,92.80
2018-02-12T03:43:40.753Z,92.71
2018-02-12T03:44:40.757Z,93.37
2018-02-12T03:45:40.688Z,93.18
2018-02-12T03:46:40.694Z,92.24
2018-02-12T03:47:40.660Z,92.61
2018-02-12T03:48:40.646Z,92.14
2018-02-12T03:49:40.639Z,91.86
2018-02-12T03:50:40.574Z,91.96
2018-02-12T03:51:40.542Z,92.43
2018-02-12T03:52:40.500Z,91.86
2018-02-12T03:53:40.478Z,92.33
2018-02-12T03:54:40.454Z,92.14
2018-02-12T03:55:40.434Z,92.14
2018-02-12T03:56:40.376Z,92.24
2018-02-12T03:57:40.347Z,92.43
2018-02-12T03:58:40.328Z,93.18
2018-02-12T03:59:40.291Z,92.90
2018-02-12T04:00:40.276Z,92.80
2018-02-12T04:01:40.252Z,92.99
2018-02-12T04:02:40.207Z,93.18
2018-02-12T04:03:40.178Z,93.37
2018-02-12T04:04:40.148Z,93.09
2018-02-12T04:05:40.120Z,92.80
2018-02-12T04:06:40.103Z,93.66
2018-02-12T04:07:40.066Z,93.37
2018-02-12T04:08:40.038Z,94.13
2018-02-12T04:09:40.935Z,93.94
2018-02-12T04:10:39.983Z,93.94
2018-02-12T04:11:39.955Z,94.32
2018-02-12T04:12:39.925Z,94.23
2018-02-12T04:13:39.896Z,94.13
2018-02-12T04:14:39.875Z,94.60
2018-02-12T04:15:39.842Z,94.13
2018-02-12T04:16:39.815Z,94.42
2018-02-12T04:17:39.787Z,94.79
2018-02-12T04:18:39.758Z,94.42
2018-02-12T04:19:39.732Z,94.08
2018-02-12T04:20:39.701Z,94.04
2018-02-12T04:21:39.680Z,94.51
2018-02-12T04:22:39.645Z,94.51
2018-02-12T04:23:39.623Z,94.70
2018-02-12T04:24:39.591Z,94.70
2018-02-12T04:25:39.558Z,94.13
2018-02-12T04:26:39.539Z,94.23
2018-02-12T04:27:39.509Z,94.13
2018-02-12T04:28:39.475Z,94.70
2018-02-12T04:29:39.449Z,94.89
2018-02-12T04:30:39.419Z,94.70
2018-02-12T04:31:39.392Z,94.79
2018-02-12T04:32:39.367Z,94.32
2018-02-12T04:33:39.336Z,94.60
2018-02-12T04:34:39.311Z,94.23
2018-02-12T04:35:39.278Z,94.13
2018-02-12T04:36:39.302Z,93.85
2018-02-12T04:37:39.226Z,94.32
2018-02-12T04:38:39.195Z,94.23
2018-02-12T04:39:39.169Z,94.32
2018-02-12T04:40:39.138Z,93.85
2018-02-12T04:41:39.110Z,94.32
2018-02-12T04:42:39.087Z,94.70
2018-02-12T04:43:39.055Z,94.23
2018-02-12T04:44:39.028Z,94.60
2018-02-12T04:45:38.998Z,94.79
2018-02-12T04:46:38.972Z,94.51
2018-02-12T04:47:38.944Z,94.32
2018-02-12T04:48:38.915Z,94.70
2018-02-12T04:49:38.886Z,94.70
2018-02-12T04:50:38.858Z,94.70
2018-02-12T04:51:38.891Z,94.51
2018-02-12T04:52:38.801Z,94.70
2018-02-12T04:53:38.774Z,94.51
2018-02-12T04:54:38.745Z,94.32
2018-02-12T04:55:38.716Z,94.51
2018-02-12T04:56:38.688Z,94.79
2018-02-12T04:57:38.670Z,94.32
2018-02-12T04:58:38.633Z,94.51
2018-02-12T04:59:38.606Z,94.13
2018-02-12T05:00:38.580Z,94.23
2018-02-12T05:01:38.563Z,94.04
2018-02-12T05:02:38.548Z,94.23
2018-02-12T05:03:38.496Z,94.04
2018-02-12T05:04:38.475Z,94.32
2018-02-12T05:05:38.435Z,94.23
2018-02-12T05:06:38.407Z,93.94
2018-02-12T05:07:38.401Z,93.85
2018-02-12T05:08:38.350Z,94.04
2018-02-12T05:09:38.323Z,94.04
2018-02-12T05:10:38.294Z,94.13
2018-02-12T05:11:38.273Z,94.13
2018-02-12T05:12:38.236Z,93.94
2018-02-12T05:13:38.210Z,93.66
2018-02-12T05:14:38.185Z,93.18
2018-02-12T05:15:38.153Z,93.47
2018-02-12T05:16:38.150Z,93.56
2018-02-12T05:17:38.097Z,93.47
2018-02-12T05:18:38.071Z,93.09
2018-02-12T05:19:38.041Z,93.18
2018-02-12T05:20:38.028Z,93.18
2018-02-12T05:21:37.985Z,92.99
2018-02-12T05:22:37.955Z,93.28
2018-02-12T05:23:37.928Z,93.18
2018-02-12T05:24:37.899Z,93.09
2018-02-12T05:25:37.870Z,92.99
2018-02-12T05:26:37.887Z,92.80
2018-02-12T05:27:37.813Z,92.71
2018-02-12T05:28:37.783Z,92.80
2018-02-12T05:29:37.757Z,92.99
2018-02-12T05:30:37.731Z,93.37
2018-02-12T05:31:37.699Z,93.18
2018-02-12T05:32:37.671Z,92.71
2018-02-12T05:33:37.643Z,92.80
2018-02-12T05:34:37.615Z,93.18
2018-02-12T05:35:37.588Z,92.80
2018-02-12T05:36:37.558Z,93.28
2018-02-12T05:37:37.530Z,93.18
2018-02-12T05:38:37.503Z,93.56
2018-02-12T05:39:37.474Z,93.56
2018-02-12T05:40:37.443Z,93.75
2018-02-12T05:41:37.425Z,93.75
2018-02-12T05:42:37.388Z,93.37
2018-02-12T05:43:37.359Z,92.99
2018-02-12T05:44:37.328Z,93.85
2018-02-12T05:45:37.301Z,92.99
2018-02-12T05:46:37.274Z,93.66
2018-02-12T05:47:37.244Z,93.37
2018-02-12T05:48:37.238Z,93.66
2018-02-12T05:49:37.187Z,93.28
2018-02-12T05:50:37.162Z,93.47
2018-02-12T05:51:37.141Z,93.75
2018-02-12T05:52:37.107Z,92.99
2018-02-12T05:53:37.075Z,92.99
2018-02-12T05:54:37.046Z,93.28
2018-02-12T05:55:37.017Z,93.18
2018-02-12T05:56:36.988Z,93.09
2018-02-12T05:57:36.964Z,92.99
2018-02-12T05:58:36.931Z,93.28
2018-02-12T05:59:36.904Z,92.99
2018-02-12T06:00:36.874Z,93.56
2018-02-12T06:01:36.851Z,93.09
2018-02-12T06:02:36.818Z,92.80
2018-02-12T06:03:36.793Z,92.43
2018-02-12T06:04:36.765Z,92.80
2018-02-12T06:05:36.734Z,92.90
2018-02-12T06:06:36.705Z,92.80
2018-02-12T06:07:36.677Z,92.99
2018-02-12T06:08:36.649Z,92.90
2018-02-12T06:09:36.620Z,93.09
2018-02-12T06:10:36.594Z,92.90
2018-02-12T06:11:36.561Z,92.80
2018-02-12T06:12:36.531Z,93.09
2018-02-12T06:13:36.506Z,92.61
2018-02-12T06:14:36.477Z,93.18
2018-02-12T06:15:36.467Z,92.52
2018-02-12T06:16:36.417Z,92.61
2018-02-12T06:17:36.419Z,91.96
2018-02-12T06:18:36.364Z,91.77
2018-02-12T06:19:36.352Z,92.14
2018-02-12T06:20:36.352Z,92.14
2018-02-12T06:21:36.276Z,92.24
2018-02-12T06:22:36.251Z,92.14
2018-02-12T06:23:36.223Z,92.14
2018-02-12T06:24:36.206Z,91.96
2018-02-12T06:25:36.164Z,91.86
2018-02-12T06:26:36.137Z,91.77
2018-02-12T06:27:36.105Z,91.96
2018-02-12T06:28:36.076Z,91.67
2018-02-12T06:29:36.048Z,91.58
2018-02-12T06:30:36.019Z,91.67
2018-02-12T06:31:35.993Z,91.48
2018-02-12T06:32:35.964Z,91.77
2018-02-12T06:33:35.936Z,91.67
2018-02-12T06:34:35.904Z,91.20
2018-02-12T06:35:35.902Z,91.20
2018-02-12T06:36:35.946Z,91.58
2018-02-12T06:37:35.820Z,91.67
2018-02-12T06:38:35.795Z,91.77
2018-02-12T06:39:35.765Z,91.29
2018-02-12T06:40:35.743Z,91.77
2018-02-12T06:41:35.709Z,91.67
2018-02-12T06:42:35.677Z,91.29
2018-02-12T06:43:35.647Z,91.77
2018-02-12T06:44:35.619Z,91.77
2018-02-12T06:45:35.588Z,91.58
2018-02-12T06:46:35.563Z,91.96
2018-02-12T06:47:35.533Z,91.58
2018-02-12T06:48:35.510Z,91.58
2018-02-12T06:49:35.481Z,90.91
2018-02-12T06:50:35.468Z,91.01
2018-02-12T06:51:35.449Z,91.39
2018-02-12T06:52:35.412Z,91.48
2018-02-12T06:53:35.405Z,91.48
2018-02-12T06:54:35.454Z,91.48
2018-02-12T06:55:35.309Z,91.39
2018-02-12T06:56:35.309Z,91.29
2018-02-12T06:57:35.269Z,91.20
2018-02-12T06:58:35.222Z,91.58
2018-02-12T06:59:35.192Z,90.72
2018-02-12T07:00:35.166Z,90.82
2018-02-12T07:01:35.137Z,90.63
2018-02-12T07:02:35.154Z,90.63
2018-02-12T07:03:35.076Z,90.53
2018-02-12T07:04:35.048Z,90.34
2018-02-12T07:05:35.043Z,90.34
2018-02-12T07:06:35.002Z,89.87
2018-02-12T07:07:34.962Z,89.69
2018-02-12T07:08:34.937Z,90.34
2018-02-12T07:09:34.910Z,90.16
2018-02-12T07:10:34.877Z,90.34
2018-02-12T07:11:34.849Z,89.59
2018-02-12T07:12:34.823Z,90.53
2018-02-12T07:13:34.793Z,90.44
2018-02-12T07:14:41.143Z,90.44
2018-02-12T07:29:07.223Z,90.25
2018-02-12T07:31:18.953Z,89.97
2018-02-12T07:32:18.873Z,89.21
2018-02-12T07:34:12.231Z,89.21
2018-02-12T07:35:12.150Z,89.12
2018-02-12T07:37:15.358Z,89.87
2018-02-12T07:38:14.419Z,88.93
2018-02-12T07:39:15.284Z,89.21
2018-02-12T07:40:14.620Z,89.12
2018-02-12T07:41:13.938Z,89.31
2018-02-12T07:42:12.566Z,89.50
2018-02-12T07:43:12.603Z,89.40
2018-02-12T07:44:14.099Z,88.74
2018-02-12T07:45:12.480Z,89.40
2018-02-12T07:46:12.505Z,89.31
2018-02-12T07:47:12.494Z,89.02
2018-02-12T07:48:12.398Z,89.78
2018-02-12T07:49:12.445Z,89.40
2018-02-12T07:50:12.339Z,89.21
2018-02-12T07:51:15.003Z,89.50
2018-02-12T07:52:14.699Z,89.31
2018-02-12T07:53:14.185Z,89.40
2018-02-12T07:54:14.053Z,89.50
2018-02-12T07:55:14.560Z,89.78
2018-02-12T07:57:14.333Z,89.97
2018-02-12T07:58:14.341Z,89.87
2018-02-12T07:59:14.291Z,89.87
2018-02-12T08:01:14.422Z,89.87
2018-02-12T08:02:14.048Z,88.93
2018-02-12T08:03:13.201Z,89.31
2018-02-12T08:04:13.578Z,89.69
2018-02-12T08:05:13.755Z,89.40
2018-02-12T08:06:13.789Z,89.40
2018-02-12T08:07:13.265Z,89.78
2018-02-12T08:08:12.259Z,89.31
2018-02-12T08:09:14.268Z,89.50
2018-02-12T08:10:11.837Z,89.40
2018-02-12T08:11:13.016Z,89.59
2018-02-12T08:12:13.339Z,89.87
2018-02-12T08:13:12.326Z,89.59
2018-02-12T08:14:11.712Z,90.16
2018-02-12T08:15:11.641Z,90.44
2018-02-12T08:16:11.612Z,90.16
2018-02-12T08:17:11.598Z,90.16
2018-02-12T08:18:11.621Z,90.34
2018-02-12T08:19:13.266Z,91.01
2018-02-12T08:20:12.939Z,90.82
2018-02-12T08:21:14.305Z,90.91
2018-02-12T08:22:14.071Z,90.53
2018-02-12T08:23:12.485Z,90.91
2018-02-12T08:24:13.587Z,90.82
2018-02-12T08:25:13.088Z,90.25
2018-02-12T08:26:13.657Z,90.25
2018-02-12T08:27:13.906Z,91.01
2018-02-12T08:28:11.368Z,90.72
2018-02-12T08:29:11.320Z,90.16
2018-02-12T08:30:11.223Z,90.44
2018-02-12T08:31:11.234Z,89.97
2018-02-12T08:32:11.164Z,89.87
2018-02-12T08:33:11.207Z,89.97
2018-02-12T08:34:11.117Z,88.93
2018-02-12T08:35:11.128Z,89.31
2018-02-12T08:36:13.481Z,89.40
2018-02-12T08:37:12.855Z,89.40
2018-02-12T08:38:11.263Z,89.21
2018-02-12T08:39:12.536Z,89.40
2018-02-12T08:40:12.921Z,89.40
2018-02-12T08:41:12.616Z,89.59
2018-02-12T08:42:13.262Z,89.02
2018-02-12T08:43:12.292Z,89.97
2018-02-12T08:44:12.741Z,88.83
2018-02-12T08:45:12.352Z,89.69
2018-02-12T08:46:11.862Z,88.64
2018-02-12T08:47:11.899Z,89.50
2018-02-12T08:48:12.077Z,89.50
2018-02-12T08:49:11.771Z,88.74
2018-02-12T08:50:13.105Z,89.21
2018-02-12T08:51:12.416Z,88.74
2018-02-12T08:52:12.400Z,88.93
2018-02-12T08:53:12.167Z,89.40
2018-02-12T08:54:11.690Z,89.02
2018-02-12T08:55:11.782Z,89.31
2018-02-12T08:56:12.862Z,89.40
2018-02-12T08:57:10.915Z,89.21
2018-02-12T08:58:12.443Z,88.93
2018-02-12T08:59:12.694Z,89.21
2018-02-12T09:00:11.916Z,88.74
2018-02-12T09:01:12.283Z,88.55
2018-02-12T09:02:15.128Z,89.59
2018-02-12T09:03:13.696Z,89.44
2018-02-12T09:04:13.097Z,89.35
2018-02-12T09:05:12.344Z,89.44
2018-02-12T09:06:10.607Z,89.06
2018-02-12T09:07:10.275Z,88.87
2018-02-12T09:08:13.990Z,89.44
2018-02-12T09:09:10.207Z,89.44
2018-02-12T09:10:10.127Z,89.25
2018-02-12T09:11:10.136Z,88.68
2018-02-12T09:12:10.106Z,89.25
2018-02-12T09:13:12.253Z,88.87
2018-02-12T09:14:12.157Z,88.97
2018-02-12T09:15:10.086Z,89.06
2018-02-12T09:16:10.080Z,89.50
2018-02-12T09:17:09.980Z,89.06
2018-02-12T09:18:10.789Z,89.44
2018-02-12T09:19:10.458Z,89.54
2018-02-12T09:20:10.397Z,89.40
2018-02-12T09:21:09.816Z,89.31
2018-02-12T09:22:11.363Z,89.40
2018-02-12T09:23:11.120Z,89.31
2018-02-12T09:24:11.381Z,89.31
2018-02-12T09:25:11.305Z,89.59
2018-02-12T09:26:11.150Z,89.31
2018-02-12T09:27:10.711Z,89.40
2018-02-12T09:28:11.175Z,89.78
2018-02-12T09:29:10.767Z,89.31
2018-02-12T09:30:10.538Z,89.69
2018-02-12T09:31:10.535Z,89.59
2018-02-12T09:32:10.463Z,89.21
2018-02-12T09:33:10.239Z,88.83
2018-02-12T09:34:10.699Z,89.59
2018-02-12T09:35:11.031Z,89.59
2018-02-12T09:36:10.543Z,89.82
2018-02-12T09:37:10.642Z,89.40
2018-02-12T09:38:11.271Z,89.16
2018-02-12T09:39:10.424Z,89.54
2018-02-12T09:40:10.714Z,89.50
2018-02-12T09:41:11.414Z,88.87
2018-02-12T09:42:11.466Z,89.21
2018-02-12T09:43:09.195Z,89.21
2018-02-12T09:44:10.245Z,89.25
2018-02-12T09:45:11.500Z,89.35
2018-02-12T09:47:11.523Z,89.06
2018-02-12T09:48:12.670Z,89.25
2018-02-12T09:50:10.240Z,88.87
2018-02-12T09:51:10.213Z,88.87
2018-02-12T09:52:08.947Z,89.16
2018-02-12T09:53:08.919Z,88.87
2018-02-12T09:54:08.890Z,88.49
2018-02-12T09:55:09.568Z,88.78
2018-02-12T09:56:08.834Z,88.68
2018-02-12T09:57:08.809Z,88.78
2018-02-12T09:58:08.776Z,88.68
2018-02-12T09:59:08.750Z,88.59
2018-02-12T10:00:08.720Z,88.68
2018-02-12T10:01:08.694Z,88.12
2018-02-12T10:02:08.666Z,88.31
2018-02-12T10:03:08.637Z,87.84
2018-02-12T10:04:08.612Z,87.93
2018-02-12T10:05:08.589Z,88.31
2018-02-12T10:06:08.555Z,88.02
2018-02-12T10:07:08.528Z,87.98
2018-02-12T10:08:08.502Z,87.31
2018-02-12T10:09:11.072Z,86.46
2018-02-12T10:10:08.447Z,87.12
2018-02-12T10:11:08.417Z,86.74
2018-02-12T10:12:08.393Z,87.12
2018-02-12T10:13:08.441Z,86.83
2018-02-12T10:14:08.339Z,85.70
2018-02-12T10:15:09.098Z,85.42
2018-02-12T10:16:08.611Z,86.08
2018-02-12T10:17:08.817Z,86.36
2018-02-12T10:18:08.576Z,86.27
2018-02-12T10:20:08.631Z,85.42
2018-02-12T10:21:09.107Z,85.99
2018-02-12T10:22:09.018Z,85.70
2018-02-12T10:23:09.102Z,86.27
2018-02-12T10:24:08.325Z,85.51
2018-02-12T10:25:09.138Z,84.94
2018-02-12T10:26:08.008Z,85.13
2018-02-12T10:27:07.978Z,85.13
2018-02-12T10:29:08.005Z,85.23
2018-02-12T10:30:07.913Z,84.85
2018-02-12T10:31:07.871Z,84.47
2018-02-12T10:32:07.863Z,84.85
2018-02-12T10:33:08.251Z,84.66
2018-02-12T10:34:08.724Z,84.85
2018-02-12T10:35:07.773Z,84.56
2018-02-12T10:36:07.734Z,84.19
2018-02-12T10:37:07.764Z,83.43
2018-02-12T10:38:07.683Z,83.52
2018-02-12T10:39:07.651Z,84.09
2018-02-12T10:40:08.036Z,84.66
2018-02-12T10:41:08.949Z,84.66
2018-02-12T10:42:08.498Z,84.66
2018-02-12T10:43:08.072Z,83.75
2018-02-12T10:44:08.220Z,82.48
2018-02-12T10:45:08.764Z,82.29
2018-02-12T10:46:08.215Z,82.29
2018-02-12T10:47:08.525Z,82.48
2018-02-12T10:48:08.624Z,81.72
2018-02-12T10:49:10.216Z,81.92
2018-02-12T10:50:07.456Z,81.72
2018-02-12T10:51:09.055Z,82.20
2018-02-12T10:53:09.868Z,83.24
2018-02-12T10:54:08.918Z,83.00
2018-02-12T10:55:07.856Z,82.33
2018-02-12T10:56:07.192Z,82.33
2018-02-12T10:57:07.162Z,82.05
2018-02-12T10:58:07.210Z,81.10
2018-02-12T10:59:07.718Z,81.01
2018-02-12T11:00:09.565Z,81.38
2018-02-12T11:01:09.793Z,81.38
2018-02-12T11:02:07.056Z,82.05
2018-02-12T11:03:07.196Z,81.86
2018-02-12T11:04:07.448Z,81.10
2018-02-12T11:05:06.948Z,81.86
2018-02-12T11:06:07.643Z,82.05
2018-02-12T11:07:07.109Z,80.53
2018-02-12T11:08:07.171Z,80.72
2018-02-12T11:09:06.843Z,80.82
2018-02-12T11:10:07.029Z,81.38
2018-02-12T11:11:06.882Z,80.72
2018-02-12T11:12:06.762Z,79.96
2018-02-12T11:13:06.767Z,79.49
2018-02-12T11:14:07.072Z,79.58
2018-02-12T11:15:06.678Z,79.68
2018-02-12T11:16:06.663Z,79.77
2018-02-12T11:18:09.334Z,79.68
2018-02-12T11:19:06.966Z,79.58
2018-02-12T11:20:06.556Z,80.15
2018-02-12T11:21:06.652Z,79.30
2018-02-12T11:22:06.534Z,78.92
2018-02-12T11:23:08.438Z,78.92
2018-02-12T11:24:07.585Z,79.39
2018-02-12T11:25:07.879Z,79.39
2018-02-12T11:26:06.432Z,78.83
2018-02-12T11:27:06.364Z,78.64
2018-02-12T11:28:07.153Z,78.45
2018-02-12T11:29:06.858Z,78.45
2018-02-12T11:30:07.922Z,78.54
2018-02-12T11:31:07.478Z,78.49
2018-02-12T11:32:06.485Z,78.58
2018-02-12T11:33:06.300Z,78.20
2018-02-12T11:34:07.308Z,78.67
2018-02-12T11:35:08.900Z,77.83
2018-02-12T11:36:06.181Z,78.16
2018-02-12T11:37:06.103Z,78.11
2018-02-12T11:38:06.088Z,78.11
2018-02-12T11:39:06.050Z,77.73
2018-02-12T11:40:06.019Z,77.06
2018-02-12T11:41:06.433Z,76.78
2018-02-12T11:42:05.968Z,76.59
2018-02-12T11:43:06.142Z,77.16
2018-02-12T11:44:05.925Z,76.59
2018-02-12T11:45:05.887Z,76.12
2018-02-12T11:46:06.055Z,75.17
2018-02-12T11:47:05.873Z,75.36
2018-02-12T11:48:06.347Z,76.03
2018-02-12T11:49:05.820Z,75.64
2018-02-12T11:50:05.763Z,74.79
2018-02-12T11:51:05.793Z,75.64
2018-02-12T11:52:05.721Z,74.98
2018-02-12T11:53:05.684Z,73.18
2018-02-12T11:54:05.660Z,73.27
2018-02-12T11:55:05.968Z,72.04
2018-02-12T11:56:05.610Z,71.38
2018-02-12T11:57:05.591Z,71.95
2018-02-12T11:58:05.582Z,72.80
2018-02-12T11:59:05.535Z,72.99
2018-02-12T12:00:05.546Z,72.71
2018-02-12T12:01:06.086Z,72.99
2018-02-12T12:02:05.508Z,72.99
2018-02-12T12:03:05.686Z,72.14
2018-02-12T12:04:05.530Z,72.99
2018-02-12T12:05:05.392Z,72.52
2018-02-12T12:06:05.783Z,72.89
2018-02-12T12:07:05.903Z,71.85
2018-02-12T12:08:05.370Z,70.90
2018-02-12T12:09:05.633Z,71.76
2018-02-12T12:10:05.909Z,70.72
2018-02-12T12:11:05.399Z,71.47
2018-02-12T12:12:05.621Z,71.28
2018-02-12T12:13:06.533Z,72.14
2018-02-12T12:14:06.533Z,70.90
2018-02-12T12:15:05.947Z,70.72
2018-02-12T12:16:05.424Z,69.96
2018-02-12T12:17:06.448Z,70.72
2018-02-12T12:18:05.677Z,71.76
2018-02-12T12:19:08.819Z,72.71
2018-02-12T12:20:05.383Z,71.19
2018-02-12T12:21:07.397Z,71.95
2018-02-12T12:22:05.388Z,71.95
2018-02-12T12:23:05.155Z,72.42
2018-02-12T12:24:05.078Z,72.04
2018-02-12T12:25:05.384Z,71.85
2018-02-12T12:26:04.901Z,71.76
2018-02-12T12:27:05.978Z,72.96
2018-02-12T12:28:05.717Z,73.18
2018-02-12T12:29:06.822Z,73.18
2018-02-12T12:30:07.967Z,73.18
2018-02-12T12:31:05.245Z,73.08
2018-02-12T12:32:04.714Z,72.71
2018-02-12T12:33:04.679Z,72.80
2018-02-12T12:34:04.653Z,72.23
2018-02-12T12:35:05.013Z,72.42
2018-02-12T12:36:04.688Z,72.61
2018-02-12T12:37:04.578Z,72.23
2018-02-12T12:38:04.554Z,73.08
2018-02-12T12:39:04.535Z,71.85
2018-02-12T12:40:04.504Z,71.28
2018-02-12T12:41:04.473Z,71.00
2018-02-12T12:42:04.455Z,71.28
2018-02-12T12:43:04.423Z,70.72
2018-02-12T12:44:04.483Z,70.53
2018-02-12T12:45:04.489Z,70.15
2018-02-12T12:46:04.344Z,70.62
2018-02-12T12:47:04.319Z,70.15
2018-02-12T12:48:04.933Z,69.67
2018-02-12T12:49:04.270Z,69.67
2018-02-12T12:50:04.500Z,69.67
2018-02-12T12:51:04.222Z,69.38
2018-02-12T12:52:04.193Z,69.67
2018-02-12T12:53:04.168Z,69.01
2018-02-12T12:54:04.145Z,69.33
2018-02-12T12:55:04.118Z,69.52
2018-02-12T12:56:04.092Z,69.80
2018-02-12T12:57:04.102Z,69.33
2018-02-12T12:58:04.044Z,68.63
2018-02-12T12:59:04.018Z,68.35
2018-02-12T13:00:03.991Z,68.54
2018-02-12T13:01:03.968Z,68.35
2018-02-12T13:02:03.943Z,69.20
2018-02-12T13:03:03.918Z,69.10
2018-02-12T13:04:03.894Z,69.10
2018-02-12T13:05:03.869Z,69.20
2018-02-12T13:06:03.843Z,68.73
2018-02-12T13:07:03.816Z,68.25
2018-02-12T13:08:03.792Z,68.15
2018-02-12T13:09:03.826Z,68.06
2018-02-12T13:10:03.756Z,69.01
2018-02-12T13:11:03.727Z,69.38
2018-02-12T13:12:03.690Z,69.29
2018-02-12T13:13:03.668Z,69.48
2018-02-12T13:14:03.640Z,69.48
2018-02-12T13:15:03.613Z,69.67
2018-02-12T13:16:03.709Z,69.67
2018-02-12T13:17:03.564Z,70.15